(°C)
(°C)
-1°
-2°
-2°
-2°
-3°
-3°
-3°
NY
NY
NY
NY
NY
NÉN
NÉN
(km/h)
19-33
19-34
20-34
19-33
18-33
18-33
19-33
(mm)
0
3
0
0
0
0
0
(%)
7
34
22
15
15
22
8

Napfelkelte

/ -30.6°
sun-icon
UV 1
06:51
19:28
Hold (növekvő félhold) (161°)
19:39
03:57

METAR 57.92°É 56.02°K (USPP)-ért

Idő Feltételek Hőmérséklet/
Harmatpont
Szél Látási viszonyok Időjárás Felhők Légnyomás Módosítás Nyers
MVFR 4°C / 2°C 320º variable 290º to 350º 10kt >10km Light Showers Rain 3.00mm precipitation Vertical Visibility of 0ft. 1013 No Significant change. Runway 03: Wet or puddles, 51-100% contamination with 1mm, friction coefficient 0.50. USPP 181930Z 32005MPS 290V350 9999 -SHRA BKN014CB 04/02 Q1013 R03/290150 NOSIG RMK QFE749
MVFR 4°C / 2°C 300º variable 260º to 330º 10kt >10km - Broken Clouds 1300ft 1012 No Significant change. Runway 03: Wet or puddles, 51-100% contamination with 1mm, friction coefficient 0.50. USPP 181900Z 30005MPS 260V330 9999 BKN013CB 04/02 Q1012 R03/290150 NOSIG RMK QFE749
VFR 4°C / 2°C 300º 10kt >10km - Scattered Clouds 1400ft 1013 No Significant change. Runway 03: Wet or puddles, 51-100% contamination with 1mm, friction coefficient 0.50. USPP 181830Z 30005MPS 9999 SCT014 04/02 Q1013 R03/290150 NOSIG RMK QFE749
MVFR 4°C / 2°C 310º variable 280º to 350º 10kt >10km - Broken Clouds 1800ft 1013 No Significant change. Runway 21: Wet or puddles, 51-100% contamination with 1mm, friction coefficient 0.50. USPP 181800Z 31005MPS 280V350 9999 BKN018CB 04/02 Q1013 R21/290150 NOSIG RMK QFE749
MVFR 4°C / 2°C 310º 10kt >10km - Broken Clouds 1700ft 1013 No Significant change. Runway 21: Wet or puddles, 51-100% contamination with 1mm, friction coefficient 0.50. USPP 181730Z 31005MPS 9999 BKN017CB 04/02 Q1013 R21/290150 NOSIG RMK QFE749
MVFR 4°C / 2°C 310º 8kt >10km - Broken Clouds 1600ft 1013 No Significant change. Runway 21: Wet or puddles, 51-100% contamination with 1mm, friction coefficient 0.50. USPP 181700Z 31004MPS 9999 BKN016CB 04/02 Q1013 R21/290150 NOSIG RMK QFE749
VFR 4°C / 2°C 310º variable 280º to 340º 10kt >10km - Scattered Clouds 1700ft 1013 No Significant change. Runway 21: Wet or puddles, 51-100% contamination with 1mm, friction coefficient 0.50. USPP 181630Z 31005MPS 280V340 9999 SCT017CB 04/02 Q1013 R21/290150 NOSIG RMK QFE749
VFR 4°C / 2°C 310º 10kt >10km Light Showers Rain 3.00mm precipitation Vertical Visibility of 0ft. 1013 No Significant change. Runway 21: Wet or puddles, 51-100% contamination with 1mm, friction coefficient 0.50. USPP 181600Z 31005MPS 9999 -SHRA SCT015CB 04/02 Q1013 R21/290150 NOSIG RMK QFE749
VFR 4°C / 2°C 310º 10kt >10km - Scattered Clouds 1900ft 1012 No Significant change. Runway 21: Wet or puddles, 51-100% contamination with 1mm, friction coefficient 0.50. USPP 181530Z 31005MPS 9999 SCT019CB 04/02 Q1012 R21/290150 NOSIG RMK QFE749
VFR 4°C / 2°C 300º 10kt >10km - Scattered Clouds 3000ft 1012 No Significant change. Runway 21: Wet or puddles, 51-100% contamination with 1mm, friction coefficient 0.50. USPP 181500Z 30005MPS 9999 SCT030CB 04/02 Q1012 R21/290150 NOSIG RMK QFE748
VFR 4°C / 1°C 310º variable 280º to 340º 8kt >10km - Scattered Clouds 2600ft 1012 No Significant change. Runway 21: Wet or puddles, 51-100% contamination with 1mm, friction coefficient 0.50. USPP 181430Z 31004MPS 280V340 9999 SCT026CB 04/01 Q1012 R21/290150 NOSIG RMK QFE748
VFR 5°C / 1°C 330º variable 290º to 360º 10kt >10km - Scattered Clouds 1900ft 1012 No Significant change. Runway 21: Wet or puddles, 51-100% contamination with 1mm, friction coefficient 0.50. USPP 181400Z 33005MPS 290V360 9999 SCT019CB 05/01 Q1012 R21/290150 NOSIG RMK QFE748
VFR 5°C / 1°C 330º variable 290º to 350º 10kt >10km - Scattered Clouds 1900ft 1012 Temporary: Visibility 1500. Showers Rain . Broken Clouds 1600ft. Cumulonimbus RMK QFE748 . Runway 21: Wet or puddles, 51-100% contamination with 1mm, friction coefficient 0.50. USPP 181330Z 33005MPS 290V350 9999 SCT019CB 05/01 Q1012 R21/290150 TEMPO 1500 SHRA BKN016CB RMK QFE748
VFR 5°C / 2°C 330º variable 300º to 360º 10kt >10km - Scattered Clouds 1800ft 1012 Temporary: Visibility 1500. Showers Rain . Broken Clouds 1600ft. Cumulonimbus RMK QFE748 . Runway 21: Wet or puddles, 51-100% contamination with 1mm, friction coefficient 0.50. USPP 181300Z 33005MPS 300V360 9999 SCT018CB 05/02 Q1012 R21/290150 TEMPO 1500 SHRA BKN016CB RMK QFE748
VFR 6°C / 2°C 320º variable 300º to 360º 12kt >10km - Scattered Clouds 2100ft 1012 Temporary: Visibility 1500. Showers Rain . Broken Clouds 1600ft. Cumulonimbus RMK QFE748 . Runway 21: Wet or puddles, 51-100% contamination with 1mm, friction coefficient 0.50. USPP 181230Z 32006MPS 300V360 9999 SCT021CB 06/02 Q1012 R21/290150 TEMPO 1500 SHRA BKN016CB RMK QFE748
MVFR 6°C / 3°C 330º variable 290º to 010º 6kt >10km - Broken Clouds 2100ft 1011 Temporary: Visibility 1500. Showers Rain . Broken Clouds 1600ft. Cumulonimbus RMK QFE748 . Runway 21: Wet or puddles, 51-100% contamination with 1mm, friction coefficient 0.50. USPP 181200Z 33003MPS 290V010 9999 BKN021CB 06/03 Q1011 R21/290150 TEMPO 1500 SHRA BKN016CB RMK QFE748
MVFR 7°C / 3°C 330º variable 290º to 010º 8kt >10km - Broken Clouds 2300ft 1011 Temporary: Visibility 1500. Showers Rain . Broken Clouds 1600ft. Cumulonimbus RMK QFE748 . Runway 21: Wet or puddles, 51-100% contamination with 1mm, friction coefficient 0.50. USPP 181130Z 33004MPS 290V010 9999 BKN023CB 07/03 Q1011 R21/290150 TEMPO 1500 SHRA BKN016CB RMK QFE748
VFR 5°C / 2°C 310º variable 290º to 360º 12kt Gust 21kt >10km Light Showers Rain 3.00mm precipitation Vertical Visibility of 0ft. 1011 Temporary: Visibility 1500. Showers Rain . Broken Clouds 1600ft. Cumulonimbus RMK QFE747 . Runway 21: Wet or puddles, 51-100% contamination with 1mm, friction coefficient 0.50. USPP 181100Z 31006G11MPS 290V360 9999 -SHRA BKN032CB 05/02 Q1011 R21/290150 TEMPO 1500 SHRA BKN016CB RMK QFE747
VFR 7°C / 4°C 300º 10kt >10km - Scattered Clouds 1900ft 1011 Temporary: Visibility 1500. Showers Rain . Broken Clouds 1600ft. Cumulonimbus RMK QFE747 . Runway 21: Wet or puddles, 51-100% contamination with 1mm, friction coefficient 0.50. USPP 181030Z 30005MPS 9999 SCT019CB 07/04 Q1011 R21/290150 TEMPO 1500 SHRA BKN016CB RMK QFE747
MVFR 5°C / 3°C 310º variable 290º to 350º 8kt >10km - Broken Clouds 2300ft 1011 Temporary: Visibility 1500. Showers Rain . Broken Clouds 1600ft. Cumulonimbus RMK QFE747 . Runway 21: Wet or puddles, 51-100% contamination with 1mm, friction coefficient 0.50. USPP 181000Z 31004MPS 290V350 9999 BKN023CB 05/03 Q1011 R21/290150 TEMPO 1500 SHRA BKN016CB RMK QFE747
MVFR 5°C / 3°C 330º variable 290º to 030º 8kt >10km - Broken Clouds 1800ft 1011 Temporary: 28005G15MPS Visibility 1500. Showers Rain . Broken Clouds 1600ft. Cumulonimbus RMK QFE747 . Runway 21: Wet or puddles, 51-100% contamination with 1mm, friction coefficient 0.50. USPP 180930Z 33004MPS 290V030 9999 BKN018CB 05/03 Q1011 R21/290150 TEMPO 28005G15MPS 1500 SHRA BKN016CB RMK QFE747
MVFR 6°C / 3°C 290º variable 260º to 330º 12kt >10km - Broken Clouds 2200ft 1011 No Significant change. Runway 21: Clear and dry, 51-100% contamination with <1mm, friction coefficient 0.60. USPP 180900Z 29006MPS 260V330 9999 BKN022CB 06/03 Q1011 R21/090060 NOSIG RMK QFE747
MVFR 5°C / 2°C 310º variable 290º to 010º 10kt >10km - Broken Clouds 2700ft 1011 No Significant change. Runway 21: Wet or puddles, 51-100% contamination with 1mm, friction coefficient 0.50. USPP 180830Z 31005MPS 290V010 9999 BKN027CB 05/02 Q1011 R21/290150 NOSIG RMK QFE747
MVFR 6°C / 2°C 350º variable 310º to 040º 10kt >10km Light Showers Rain 3.00mm precipitation Vertical Visibility of 0ft. 1010 No Significant change. Runway 21: Wet or puddles, 51-100% contamination with 1mm, friction coefficient 0.50. USPP 180800Z 35005MPS 310V040 9999 -SHRA BKN021CB 06/02 Q1010 R21/290150 NOSIG RMK QFE747

MVFR

4°C / 2°C

[Több]
Szél 320º variable 290º to 350º 10kt
Látási viszonyok >10km
Időjárás Light Showers Rain 3.00mm precipitation
Felhők Vertical Visibility of 0ft.
Légnyomás 1013
Módosítás No Significant change. Runway 03: Wet or puddles, 51-100% contamination with 1mm, friction coefficient 0.50.
Nyers USPP 181930Z 32005MPS 290V350 9999 -SHRA BKN014CB 04/02 Q1013 R03/290150 NOSIG RMK QFE749

MVFR

4°C / 2°C

[Több]
Szél 300º variable 260º to 330º 10kt
Látási viszonyok >10km
Időjárás -
Felhők Broken Clouds 1300ft
Légnyomás 1012
Módosítás No Significant change. Runway 03: Wet or puddles, 51-100% contamination with 1mm, friction coefficient 0.50.
Nyers USPP 181900Z 30005MPS 260V330 9999 BKN013CB 04/02 Q1012 R03/290150 NOSIG RMK QFE749

VFR

4°C / 2°C

[Több]
Szél 300º 10kt
Látási viszonyok >10km
Időjárás -
Felhők Scattered Clouds 1400ft
Légnyomás 1013
Módosítás No Significant change. Runway 03: Wet or puddles, 51-100% contamination with 1mm, friction coefficient 0.50.
Nyers USPP 181830Z 30005MPS 9999 SCT014 04/02 Q1013 R03/290150 NOSIG RMK QFE749

MVFR

4°C / 2°C

[Több]
Szél 310º variable 280º to 350º 10kt
Látási viszonyok >10km
Időjárás -
Felhők Broken Clouds 1800ft
Légnyomás 1013
Módosítás No Significant change. Runway 21: Wet or puddles, 51-100% contamination with 1mm, friction coefficient 0.50.
Nyers USPP 181800Z 31005MPS 280V350 9999 BKN018CB 04/02 Q1013 R21/290150 NOSIG RMK QFE749

MVFR

4°C / 2°C

[Több]
Szél 310º 10kt
Látási viszonyok >10km
Időjárás -
Felhők Broken Clouds 1700ft
Légnyomás 1013
Módosítás No Significant change. Runway 21: Wet or puddles, 51-100% contamination with 1mm, friction coefficient 0.50.
Nyers USPP 181730Z 31005MPS 9999 BKN017CB 04/02 Q1013 R21/290150 NOSIG RMK QFE749

MVFR

4°C / 2°C

[Több]
Szél 310º 8kt
Látási viszonyok >10km
Időjárás -
Felhők Broken Clouds 1600ft
Légnyomás 1013
Módosítás No Significant change. Runway 21: Wet or puddles, 51-100% contamination with 1mm, friction coefficient 0.50.
Nyers USPP 181700Z 31004MPS 9999 BKN016CB 04/02 Q1013 R21/290150 NOSIG RMK QFE749

VFR

4°C / 2°C

[Több]
Szél 310º variable 280º to 340º 10kt
Látási viszonyok >10km
Időjárás -
Felhők Scattered Clouds 1700ft
Légnyomás 1013
Módosítás No Significant change. Runway 21: Wet or puddles, 51-100% contamination with 1mm, friction coefficient 0.50.
Nyers USPP 181630Z 31005MPS 280V340 9999 SCT017CB 04/02 Q1013 R21/290150 NOSIG RMK QFE749

VFR

4°C / 2°C

[Több]
Szél 310º 10kt
Látási viszonyok >10km
Időjárás Light Showers Rain 3.00mm precipitation
Felhők Vertical Visibility of 0ft.
Légnyomás 1013
Módosítás No Significant change. Runway 21: Wet or puddles, 51-100% contamination with 1mm, friction coefficient 0.50.
Nyers USPP 181600Z 31005MPS 9999 -SHRA SCT015CB 04/02 Q1013 R21/290150 NOSIG RMK QFE749

VFR

4°C / 2°C

[Több]
Szél 310º 10kt
Látási viszonyok >10km
Időjárás -
Felhők Scattered Clouds 1900ft
Légnyomás 1012
Módosítás No Significant change. Runway 21: Wet or puddles, 51-100% contamination with 1mm, friction coefficient 0.50.
Nyers USPP 181530Z 31005MPS 9999 SCT019CB 04/02 Q1012 R21/290150 NOSIG RMK QFE749

VFR

4°C / 2°C

[Több]
Szél 300º 10kt
Látási viszonyok >10km
Időjárás -
Felhők Scattered Clouds 3000ft
Légnyomás 1012
Módosítás No Significant change. Runway 21: Wet or puddles, 51-100% contamination with 1mm, friction coefficient 0.50.
Nyers USPP 181500Z 30005MPS 9999 SCT030CB 04/02 Q1012 R21/290150 NOSIG RMK QFE748

VFR

4°C / 1°C

[Több]
Szél 310º variable 280º to 340º 8kt
Látási viszonyok >10km
Időjárás -
Felhők Scattered Clouds 2600ft
Légnyomás 1012
Módosítás No Significant change. Runway 21: Wet or puddles, 51-100% contamination with 1mm, friction coefficient 0.50.
Nyers USPP 181430Z 31004MPS 280V340 9999 SCT026CB 04/01 Q1012 R21/290150 NOSIG RMK QFE748

VFR

5°C / 1°C

[Több]
Szél 330º variable 290º to 360º 10kt
Látási viszonyok >10km
Időjárás -
Felhők Scattered Clouds 1900ft
Légnyomás 1012
Módosítás No Significant change. Runway 21: Wet or puddles, 51-100% contamination with 1mm, friction coefficient 0.50.
Nyers USPP 181400Z 33005MPS 290V360 9999 SCT019CB 05/01 Q1012 R21/290150 NOSIG RMK QFE748

VFR

5°C / 1°C

[Több]
Szél 330º variable 290º to 350º 10kt
Látási viszonyok >10km
Időjárás -
Felhők Scattered Clouds 1900ft
Légnyomás 1012
Módosítás Temporary: Visibility 1500. Showers Rain . Broken Clouds 1600ft. Cumulonimbus RMK QFE748 . Runway 21: Wet or puddles, 51-100% contamination with 1mm, friction coefficient 0.50.
Nyers USPP 181330Z 33005MPS 290V350 9999 SCT019CB 05/01 Q1012 R21/290150 TEMPO 1500 SHRA BKN016CB RMK QFE748

VFR

5°C / 2°C

[Több]
Szél 330º variable 300º to 360º 10kt
Látási viszonyok >10km
Időjárás -
Felhők Scattered Clouds 1800ft
Légnyomás 1012
Módosítás Temporary: Visibility 1500. Showers Rain . Broken Clouds 1600ft. Cumulonimbus RMK QFE748 . Runway 21: Wet or puddles, 51-100% contamination with 1mm, friction coefficient 0.50.
Nyers USPP 181300Z 33005MPS 300V360 9999 SCT018CB 05/02 Q1012 R21/290150 TEMPO 1500 SHRA BKN016CB RMK QFE748

VFR

6°C / 2°C

[Több]
Szél 320º variable 300º to 360º 12kt
Látási viszonyok >10km
Időjárás -
Felhők Scattered Clouds 2100ft
Légnyomás 1012
Módosítás Temporary: Visibility 1500. Showers Rain . Broken Clouds 1600ft. Cumulonimbus RMK QFE748 . Runway 21: Wet or puddles, 51-100% contamination with 1mm, friction coefficient 0.50.
Nyers USPP 181230Z 32006MPS 300V360 9999 SCT021CB 06/02 Q1012 R21/290150 TEMPO 1500 SHRA BKN016CB RMK QFE748

MVFR

6°C / 3°C

[Több]
Szél 330º variable 290º to 010º 6kt
Látási viszonyok >10km
Időjárás -
Felhők Broken Clouds 2100ft
Légnyomás 1011
Módosítás Temporary: Visibility 1500. Showers Rain . Broken Clouds 1600ft. Cumulonimbus RMK QFE748 . Runway 21: Wet or puddles, 51-100% contamination with 1mm, friction coefficient 0.50.
Nyers USPP 181200Z 33003MPS 290V010 9999 BKN021CB 06/03 Q1011 R21/290150 TEMPO 1500 SHRA BKN016CB RMK QFE748

MVFR

7°C / 3°C

[Több]
Szél 330º variable 290º to 010º 8kt
Látási viszonyok >10km
Időjárás -
Felhők Broken Clouds 2300ft
Légnyomás 1011
Módosítás Temporary: Visibility 1500. Showers Rain . Broken Clouds 1600ft. Cumulonimbus RMK QFE748 . Runway 21: Wet or puddles, 51-100% contamination with 1mm, friction coefficient 0.50.
Nyers USPP 181130Z 33004MPS 290V010 9999 BKN023CB 07/03 Q1011 R21/290150 TEMPO 1500 SHRA BKN016CB RMK QFE748

VFR

5°C / 2°C

[Több]
Szél 310º variable 290º to 360º 12kt Gust 21kt
Látási viszonyok >10km
Időjárás Light Showers Rain 3.00mm precipitation
Felhők Vertical Visibility of 0ft.
Légnyomás 1011
Módosítás Temporary: Visibility 1500. Showers Rain . Broken Clouds 1600ft. Cumulonimbus RMK QFE747 . Runway 21: Wet or puddles, 51-100% contamination with 1mm, friction coefficient 0.50.
Nyers USPP 181100Z 31006G11MPS 290V360 9999 -SHRA BKN032CB 05/02 Q1011 R21/290150 TEMPO 1500 SHRA BKN016CB RMK QFE747

VFR

7°C / 4°C

[Több]
Szél 300º 10kt
Látási viszonyok >10km
Időjárás -
Felhők Scattered Clouds 1900ft
Légnyomás 1011
Módosítás Temporary: Visibility 1500. Showers Rain . Broken Clouds 1600ft. Cumulonimbus RMK QFE747 . Runway 21: Wet or puddles, 51-100% contamination with 1mm, friction coefficient 0.50.
Nyers USPP 181030Z 30005MPS 9999 SCT019CB 07/04 Q1011 R21/290150 TEMPO 1500 SHRA BKN016CB RMK QFE747

MVFR

5°C / 3°C

[Több]
Szél 310º variable 290º to 350º 8kt
Látási viszonyok >10km
Időjárás -
Felhők Broken Clouds 2300ft
Légnyomás 1011
Módosítás Temporary: Visibility 1500. Showers Rain . Broken Clouds 1600ft. Cumulonimbus RMK QFE747 . Runway 21: Wet or puddles, 51-100% contamination with 1mm, friction coefficient 0.50.
Nyers USPP 181000Z 31004MPS 290V350 9999 BKN023CB 05/03 Q1011 R21/290150 TEMPO 1500 SHRA BKN016CB RMK QFE747

MVFR

5°C / 3°C

[Több]
Szél 330º variable 290º to 030º 8kt
Látási viszonyok >10km
Időjárás -
Felhők Broken Clouds 1800ft
Légnyomás 1011
Módosítás Temporary: 28005G15MPS Visibility 1500. Showers Rain . Broken Clouds 1600ft. Cumulonimbus RMK QFE747 . Runway 21: Wet or puddles, 51-100% contamination with 1mm, friction coefficient 0.50.
Nyers USPP 180930Z 33004MPS 290V030 9999 BKN018CB 05/03 Q1011 R21/290150 TEMPO 28005G15MPS 1500 SHRA BKN016CB RMK QFE747

MVFR

6°C / 3°C

[Több]
Szél 290º variable 260º to 330º 12kt
Látási viszonyok >10km
Időjárás -
Felhők Broken Clouds 2200ft
Légnyomás 1011
Módosítás No Significant change. Runway 21: Clear and dry, 51-100% contamination with <1mm, friction coefficient 0.60.
Nyers USPP 180900Z 29006MPS 260V330 9999 BKN022CB 06/03 Q1011 R21/090060 NOSIG RMK QFE747

MVFR

5°C / 2°C

[Több]
Szél 310º variable 290º to 010º 10kt
Látási viszonyok >10km
Időjárás -
Felhők Broken Clouds 2700ft
Légnyomás 1011
Módosítás No Significant change. Runway 21: Wet or puddles, 51-100% contamination with 1mm, friction coefficient 0.50.
Nyers USPP 180830Z 31005MPS 290V010 9999 BKN027CB 05/02 Q1011 R21/290150 NOSIG RMK QFE747

MVFR

6°C / 2°C

[Több]
Szél 350º variable 310º to 040º 10kt
Látási viszonyok >10km
Időjárás Light Showers Rain 3.00mm precipitation
Felhők Vertical Visibility of 0ft.
Légnyomás 1010
Módosítás No Significant change. Runway 21: Wet or puddles, 51-100% contamination with 1mm, friction coefficient 0.50.
Nyers USPP 180800Z 35005MPS 310V040 9999 -SHRA BKN021CB 06/02 Q1010 R21/290150 NOSIG RMK QFE747

TAF 57.92°É 56.02°K (USPP)-ért

From till


From till Wind 320º 6kt. Gust 23kt. Visibility 6000m. Broken Clouds 1600ft.
Temporarly from till Wind 300º 6kt. Gust 27kt. Light Showers Rain Light Showers Snow . Broken Clouds 1100ft.
Becoming from till Wind 320º 6kt. Gust 23kt. Visibility 10km or more. Broken Clouds 2000ft.

Nyers: TAF USPP 181656Z 1818/1918 32003G12MPS 6000 BKN016 TEMPO 1818/1906 30003G14MPS -SHRASN BKN011CB BECMG 1906/1907 9999 BKN020

Aktuális műholdas és esőképek ezen a helyen: 57.92°É 56.02°K

A helyszín jelölő a következő helyen van elhelyezve: 57.92°É 56.02°K. [Több]

A valós idejű műholdas kép ötvözi a nappali látható fényt az éjszakai infravörös sugárzással. Éjjel a kép nem sötét, mivel az infravörös sugárzás képes érzékelni a hőmérséklet-különbségeket. Sajnos az alacsony felhőket és a ködöt nehéz megkülönböztetni a talaj hőmérsékletétől, így az éjszaka folyamán szinte láthatatlanok lehetnek. A Meteosat európai műholdképei valós időben frissülnek minden 5 percben. A GOES-16/GOES-17 (Észak- és Dél-Amerika) és Himawari (Ázsia) képei 10 percenként frissülnek.

Minden jog fenntartva 2021 EUMETSAT / meteoblue. / Minden jog fenntartva 2021 meteoblue

Radarkép és ultrarövid távú csapadék-előrejelzés a következő helyhez: 57.92°É 56.02°K

Szitálás
Enyhe
Mérsékelt
Erős
Nagyon nehéz
Jégeső

A helyzetjelző helye: 57.92°É 56.02°K. Ez az animáció bemutatja a csapadékradart az elmúlt órára vonatkozóan, valamint előrejelzést az elkövetkező 1 órára. A szitáló eső vagy enyhe hóesés láthatatlan lehet a radar számára. A csapadék intenzitása színkóddal van jelölve, a világoskéktől a narancssárgáig.